Terminal Aerodrome Forecast
Issued by NWS

Current Version | Previous Version | Text Only | Print | Product List | Glossary On
Versions: 1 2 3 4 5 6 7 8 9 10 11 12 13 14 15
000
FTUS41 KBTV 212300
TAFSLK
TAF
KSLK 212323Z 2200/2224 VRB04KT P6SM VCSH OVC020
      TEMPO 2201/2205 4SM -SHRA BR BKN015
     FM220600 VRB03KT 3SM BR OVC015
     FM221300 11006KT P6SM VCSH BKN025=

USA.gov is the U.S. government's official web portal to all federal, state and local government web resources and services.